Time;durP1;ratioP1;P1;durP2;ratioP2;P2;SDS_P1;SDS_P2;PMS_P1;PMS_P2;Temp;Humidity;BMP_temperature;BMP_pressure;BME280_temperature;BME280_humidity;BME280_pressure;Samples;Min_cycle;Max_cycle;Signal;HPM_P1;HPM_P2
2021/12/19 00:09:31;;;;;;;28.43;20.73;;;;;;;;;;5053827;28;20153;-48
2021/12/19 00:11:58;;;;;;;28.73;19.77;;;;;;;;;;5054564;28;20050;-47
2021/12/19 00:14:24;;;;;;;30.93;21.20;;;;;;;;;;5054432;28;20143;-50
2021/12/19 00:16:54;;;;;;;24.57;18.60;;;;;;;;;;5054528;28;20032;-49
2021/12/19 00:19:20;;;;;;;30.90;21.35;;;;;;;;;;5053917;28;20025;-50
2021/12/19 00:21:47;;;;;;;24.43;15.20;;;;;;;;;;5054461;28;20442;-51
2021/12/19 00:24:13;;;;;;;32.93;20.90;;;;;;;;;;5054259;28;20035;-51
2021/12/19 00:26:39;;;;;;;32.60;19.33;;;;;;;;;;5054210;28;20033;-51
2021/12/19 00:29:05;;;;;;;21.87;15.67;;;;;;;;;;5053749;28;20029;-52
2021/12/19 00:31:32;;;;;;;25.17;16.20;;;;;;;;;;5054221;28;20025;-52
2021/12/19 00:33:58;;;;;;;48.37;18.30;;;;;;;;;;5054295;28;20029;-52
2021/12/19 00:36:24;;;;;;;23.10;17.70;;;;;;;;;;5054030;28;20048;-51
2021/12/19 00:38:50;;;;;;;36.60;18.07;;;;;;;;;;5053606;28;20104;-54
2021/12/19 00:41:16;;;;;;;26.73;16.60;;;;;;;;;;5054550;28;20411;-49
2021/12/19 00:46:08;;;;;;;24.93;17.40;;;;;;;;;;5054270;28;20479;-54
2021/12/19 00:48:35;;;;;;;32.10;18.90;;;;;;;;;;5053169;28;20028;-54
2021/12/19 00:51:01;;;;;;;31.80;18.60;;;;;;;;;;5053992;28;20430;-54
2021/12/19 00:53:27;;;;;;;33.60;19.20;;;;;;;;;;5053742;28;20047;-54
2021/12/19 00:55:53;;;;;;;34.43;19.13;;;;;;;;;;5053418;28;20040;-52
2021/12/19 00:58:19;;;;;;;31.60;18.40;;;;;;;;;;5053107;28;20383;-52
2021/12/19 01:00:45;;;;;;;31.33;18.50;;;;;;;;;;5053475;28;20021;-50
2021/12/19 01:03:11;;;;;;;28.57;20.57;;;;;;;;;;5053606;28;20029;-50
2021/12/19 01:05:40;;;;;;;28.60;18.23;;;;;;;;;;5053618;28;20367;-53
2021/12/19 01:08:06;;;;;;;31.77;19.43;;;;;;;;;;5052803;28;20028;-51
2021/12/19 01:10:33;;;;;;;57.47;20.20;;;;;;;;;;5053153;28;20025;-53
2021/12/19 01:13:01;;;;;;;34.20;21.87;;;;;;;;;;5053571;28;20049;-52
2021/12/19 01:15:27;;;;;;;37.80;21.93;;;;;;;;;;5053489;28;20443;-52
2021/12/19 01:17:53;;;;;;;40.63;21.47;;;;;;;;;;5052473;28;20033;-49
2021/12/19 01:20:21;;;;;;;29.80;19.43;;;;;;;;;;5053251;28;20025;-54
2021/12/19 01:22:48;;;;;;;30.50;19.93;;;;;;;;;;5053194;28;20039;-51
2021/12/19 01:25:14;;;;;;;28.00;18.97;;;;;;;;;;5052917;28;20092;-53
2021/12/19 01:27:40;;;;;;;36.73;22.33;;;;;;;;;;5053232;28;20056;-53
2021/12/19 01:30:07;;;;;;;37.83;20.33;;;;;;;;;;5052813;28;20027;-53
2021/12/19 01:32:33;;;;;;;50.63;22.67;;;;;;;;;;5053095;28;20036;-53
2021/12/19 01:34:59;;;;;;;41.03;22.13;;;;;;;;;;5053396;28;20083;-53
2021/12/19 01:37:25;;;;;;;38.50;21.33;;;;;;;;;;5052874;28;20041;-54
2021/12/19 01:39:51;;;;;;;30.40;17.90;;;;;;;;;;5052127;28;20056;-53
2021/12/19 01:42:19;;;;;;;31.77;20.57;;;;;;;;;;5053009;28;20040;-51
2021/12/19 01:44:46;;;;;;;52.67;22.03;;;;;;;;;;5053212;28;20140;-50
2021/12/19 01:47:12;;;;;;;40.33;19.17;;;;;;;;;;5052887;28;20100;-52
2021/12/19 01:49:38;;;;;;;30.37;19.17;;;;;;;;;;5051985;28;20231;-54
2021/12/19 01:52:04;;;;;;;34.30;21.60;;;;;;;;;;5052667;28;20586;-53
2021/12/19 01:54:30;;;;;;;38.53;21.63;;;;;;;;;;5052430;28;20025;-53
2021/12/19 01:56:56;;;;;;;28.13;19.73;;;;;;;;;;5052617;28;20025;-51
2021/12/19 01:59:22;;;;;;;25.67;18.13;;;;;;;;;;5052006;28;20033;-51
2021/12/19 02:01:50;;;;;;;30.80;17.87;;;;;;;;;;5052585;28;20048;-51
2021/12/19 02:04:17;;;;;;;29.53;18.83;;;;;;;;;;5052221;28;20481;-51
2021/12/19 02:06:43;;;;;;;39.63;18.67;;;;;;;;;;5051863;28;20060;-51
2021/12/19 02:09:10;;;;;;;25.60;17.17;;;;;;;;;;5051508;28;20025;-54
2021/12/19 02:11:37;;;;;;;28.67;17.47;;;;;;;;;;5052249;28;20025;-53
2021/12/19 02:14:04;;;;;;;26.97;17.10;;;;;;;;;;5052402;28;20105;-50
2021/12/19 02:16:30;;;;;;;50.27;14.87;;;;;;;;;;5052217;28;20032;-53
2021/12/19 02:18:57;;;;;;;40.10;20.33;;;;;;;;;;5051966;28;20029;-52
2021/12/19 02:21:23;;;;;;;37.07;20.13;;;;;;;;;;5052050;28;20035;-52
2021/12/19 02:23:49;;;;;;;26.80;15.47;;;;;;;;;;5052332;28;20068;-51
2021/12/19 02:26:15;;;;;;;26.70;16.87;;;;;;;;;;5052181;28;20478;-54
2021/12/19 02:28:41;;;;;;;28.60;16.93;;;;;;;;;;5051501;28;20099;-54
2021/12/19 02:31:07;;;;;;;36.77;16.60;;;;;;;;;;5052164;28;20026;-53
2021/12/19 02:33:38;;;;;;;32.27;18.43;;;;;;;;;;5052012;28;20048;-53
2021/12/19 02:36:21;;;;;;;47.43;20.93;;;;;;;;;;5051953;28;20052;-53
2021/12/19 02:49:45;;;;;;;35.57;18.10;;;;;;;;;;5051352;28;20090;-51
2021/12/19 02:52:13;;;;;;;27.50;20.37;;;;;;;;;;5051958;28;20037;-54
2021/12/19 02:54:39;;;;;;;49.33;21.47;;;;;;;;;;5051630;28;20021;-52
2021/12/19 02:57:06;;;;;;;29.13;18.83;;;;;;;;;;5051723;28;20068;-49
2021/12/19 02:59:32;;;;;;;59.50;20.37;;;;;;;;;;5051195;28;20558;-51
2021/12/19 03:01:58;;;;;;;39.57;20.43;;;;;;;;;;5051956;28;20399;-48
2021/12/19 03:04:24;;;;;;;44.80;19.53;;;;;;;;;;5051745;28;20467;-49
2021/12/19 03:06:50;;;;;;;36.40;19.67;;;;;;;;;;5051825;28;20036;-48
2021/12/19 03:09:31;;;;;;;36.17;20.43;;;;;;;;;;5048967;28;20124;-53
2021/12/19 03:12:07;;;;;;;27.70;19.25;;;;;;;;;;5050138;28;20040;-53
2021/12/19 03:20:03;;;;;;;36.53;17.90;;;;;;;;;;5054820;28;20099;-48
2021/12/19 03:22:29;;;;;;;44.07;17.70;;;;;;;;;;5055497;28;20025;-51
2021/12/19 03:24:55;;;;;;;28.33;16.77;;;;;;;;;;5055403;28;20032;-53
2021/12/19 03:27:21;;;;;;;35.07;17.40;;;;;;;;;;5055975;28;20311;-53
2021/12/19 03:29:47;;;;;;;27.77;16.40;;;;;;;;;;5054469;28;20029;-51
2021/12/19 03:32:13;;;;;;;34.43;16.60;;;;;;;;;;5055218;28;20108;-50
2021/12/19 03:34:40;;;;;;;22.57;15.53;;;;;;;;;;5054873;28;20040;-51
2021/12/19 03:37:06;;;;;;;23.53;15.00;;;;;;;;;;5055369;28;20116;-51
2021/12/19 03:39:55;;;;;;;26.33;14.43;;;;;;;;;;5054380;28;20454;-50
2021/12/19 03:42:21;;;;;;;32.17;17.17;;;;;;;;;;5054607;28;20116;-54
2021/12/19 03:44:47;;;;;;;29.33;13.33;;;;;;;;;;5054637;28;20188;-51
2021/12/19 03:47:13;;;;;;;31.60;15.67;;;;;;;;;;5055244;28;20178;-50
2021/12/19 03:49:39;;;;;;;23.97;13.80;;;;;;;;;;5054488;28;20033;-51
2021/12/19 03:52:05;;;;;;;43.30;16.60;;;;;;;;;;5055044;28;20498;-50
2021/12/19 03:54:31;;;;;;;33.83;17.63;;;;;;;;;;5054871;28;20028;-54
2021/12/19 03:56:56;;;;;;;31.63;16.73;;;;;;;;;;5054823;28;20462;-54
2021/12/19 03:59:22;;;;;;;26.10;15.10;;;;;;;;;;5053671;28;20378;-52
2021/12/19 04:01:52;;;;;;;30.47;16.33;;;;;;;;;;5054893;28;20373;-54
2021/12/19 04:04:18;;;;;;;25.60;14.70;;;;;;;;;;5054455;28;20530;-52
2021/12/19 04:06:43;;;;;;;39.53;15.90;;;;;;;;;;5054804;28;20123;-52
2021/12/19 04:09:09;;;;;;;27.37;14.63;;;;;;;;;;5053910;28;20029;-51
2021/12/19 04:11:35;;;;;;;25.70;16.43;;;;;;;;;;5054672;28;20025;-53
2021/12/19 04:14:01;;;;;;;26.77;15.87;;;;;;;;;;5054221;28;20033;-51
2021/12/19 04:16:27;;;;;;;27.67;16.80;;;;;;;;;;5054995;28;20025;-53
2021/12/19 04:18:53;;;;;;;31.70;13.60;;;;;;;;;;5053945;28;20025;-50
2021/12/19 04:21:19;;;;;;;24.53;14.80;;;;;;;;;;5054555;28;20390;-51
2021/12/19 04:23:45;;;;;;;31.37;15.73;;;;;;;;;;5054191;28;20103;-51
2021/12/19 04:26:11;;;;;;;20.30;13.47;;;;;;;;;;5054303;28;20553;-53
2021/12/19 04:28:37;;;;;;;36.00;14.80;;;;;;;;;;5053010;28;20022;-50
2021/12/19 04:31:04;;;;;;;25.43;16.37;;;;;;;;;;5050001;28;20452;-51
2021/12/19 04:33:31;;;;;;;30.07;14.77;;;;;;;;;;5054058;28;20472;-54
2021/12/19 04:36:00;;;;;;;26.83;16.00;;;;;;;;;;5053859;28;20048;-54
2021/12/19 04:54:57;;;;;;;27.50;15.40;;;;;;;;;;5053528;28;20033;-50
2021/12/19 04:57:49;;;;;;;23.63;12.50;;;;;;;;;;5053728;28;20037;-49
2021/12/19 05:00:16;;;;;;;30.20;13.10;;;;;;;;;;5053220;28;20612;-55
2021/12/19 05:02:48;;;;;;;25.30;12.48;;;;;;;;;;5053572;28;20025;-53
2021/12/19 05:15:55;;;;;;;27.70;13.47;;;;;;;;;;5053195;28;20060;-53
2021/12/19 05:18:25;;;;;;;19.60;12.77;;;;;;;;;;5052736;28;20132;-51
2021/12/19 05:20:58;;;;;;;25.58;12.57;;;;;;;;;;5052957;28;20040;-51
2021/12/19 05:23:48;;;;;;;23.20;14.27;;;;;;;;;;5052596;28;20491;-54
2021/12/19 05:26:10;;;;;;;20.97;12.57;;;;;;;;;;5052960;28;20079;-50
2021/12/19 05:28:36;;;;;;;24.63;12.30;;;;;;;;;;5052705;28;20167;-50
2021/12/19 05:31:03;;;;;;;33.13;12.30;;;;;;;;;;5052628;28;20098;-52
2021/12/19 05:33:29;;;;;;;26.37;12.03;;;;;;;;;;5053287;28;20048;-55
2021/12/19 05:44:14;;;;;;;13.50;8.90;;;;;;;;;;5053118;28;20398;-50
2021/12/19 05:46:41;;;;;;;45.90;12.93;;;;;;;;;;5052705;28;20036;-51
2021/12/19 05:49:08;;;;;;;25.37;13.90;;;;;;;;;;5052080;28;20114;-51
2021/12/19 05:51:35;;;;;;;29.13;13.57;;;;;;;;;;5052237;28;20109;-54
2021/12/19 05:54:00;;;;;;;26.93;12.63;;;;;;;;;;5052603;28;20051;-51
2021/12/19 05:56:26;;;;;;;18.87;11.93;;;;;;;;;;5052782;28;20028;-50
2021/12/19 05:58:52;;;;;;;20.73;10.77;;;;;;;;;;5052207;28;20056;-53
2021/12/19 06:01:18;;;;;;;19.97;11.63;;;;;;;;;;5050650;28;20021;-54
2021/12/19 06:03:44;;;;;;;22.83;11.03;;;;;;;;;;5052572;28;20078;-53
2021/12/19 06:06:10;;;;;;;20.50;12.50;;;;;;;;;;5052575;28;20032;-51
2021/12/19 06:08:36;;;;;;;16.63;10.63;;;;;;;;;;5051720;28;20570;-54
2021/12/19 06:11:02;;;;;;;21.40;11.10;;;;;;;;;;5052470;28;20032;-50
2021/12/19 06:13:28;;;;;;;14.87;9.30;;;;;;;;;;5052456;28;20033;-52
2021/12/19 06:15:56;;;;;;;14.67;10.20;;;;;;;;;;5052280;28;20036;-54
2021/12/19 06:18:23;;;;;;;17.13;9.13;;;;;;;;;;5051416;28;20029;-50
2021/12/19 06:20:49;;;;;;;14.83;9.53;;;;;;;;;;5052581;28;20072;-50
2021/12/19 06:23:15;;;;;;;16.80;10.33;;;;;;;;;;5051855;28;20053;-51
2021/12/19 06:25:47;;;;;;;15.60;10.73;;;;;;;;;;5052317;28;20478;-54
2021/12/19 06:28:13;;;;;;;31.87;11.77;;;;;;;;;;5051489;28;20462;-53
2021/12/19 06:30:39;;;;;;;36.17;12.77;;;;;;;;;;5052163;28;20021;-51
2021/12/19 06:33:05;;;;;;;17.93;11.57;;;;;;;;;;5051822;28;20025;-53
2021/12/19 06:35:31;;;;;;;13.50;9.67;;;;;;;;;;5052055;28;20124;-54
2021/12/19 06:37:57;;;;;;;13.83;8.90;;;;;;;;;;5051682;28;20033;-53
2021/12/19 06:40:24;;;;;;;18.67;10.63;;;;;;;;;;5052094;28;20474;-54
2021/12/19 06:42:50;;;;;;;14.37;8.50;;;;;;;;;;5051947;28;20060;-50
2021/12/19 06:45:16;;;;;;;14.67;9.03;;;;;;;;;;5052211;28;20028;-52
2021/12/19 06:47:42;;;;;;;15.13;8.47;;;;;;;;;;5051689;28;20032;-54
2021/12/19 06:50:09;;;;;;;15.67;9.83;;;;;;;;;;5051506;28;20032;-51
2021/12/19 06:52:36;;;;;;;15.10;8.63;;;;;;;;;;5053942;28;20029;-53
2021/12/19 06:55:02;;;;;;;12.77;8.30;;;;;;;;;;5056224;28;20032;-50
2021/12/19 06:57:28;;;;;;;13.60;8.87;;;;;;;;;;5056045;28;20033;-51
2021/12/19 06:59:54;;;;;;;12.30;8.83;;;;;;;;;;5054991;28;20167;-53
2021/12/19 07:02:20;;;;;;;14.07;7.53;;;;;;;;;;5055579;28;20537;-53
2021/12/19 07:04:46;;;;;;;13.60;8.33;;;;;;;;;;5055694;28;20386;-52
2021/12/19 07:07:13;;;;;;;10.20;7.47;;;;;;;;;;5055856;28;20321;-53
2021/12/19 07:09:39;;;;;;;11.83;7.73;;;;;;;;;;5055105;28;20025;-55
2021/12/19 07:12:06;;;;;;;10.33;7.40;;;;;;;;;;5055897;28;20033;-53
2021/12/19 07:14:32;;;;;;;9.97;6.33;;;;;;;;;;5055355;28;20513;-54
2021/12/19 07:16:58;;;;;;;9.93;8.07;;;;;;;;;;5055553;28;20052;-52
2021/12/19 07:19:24;;;;;;;12.30;8.47;;;;;;;;;;5054632;28;20068;-51
2021/12/19 07:21:50;;;;;;;15.87;8.10;;;;;;;;;;5055325;28;20032;-53
2021/12/19 07:24:16;;;;;;;12.73;5.90;;;;;;;;;;5055583;28;20456;-50
2021/12/19 07:26:42;;;;;;;10.40;7.30;;;;;;;;;;5055359;28;20029;-52
2021/12/19 07:29:08;;;;;;;8.47;6.30;;;;;;;;;;5054498;28;20029;-49
2021/12/19 07:31:37;;;;;;;10.17;7.97;;;;;;;;;;5054869;28;20082;-48
2021/12/19 07:34:03;;;;;;;10.20;7.47;;;;;;;;;;5054710;28;20040;-54
2021/12/19 07:36:36;;;;;;;12.47;7.77;;;;;;;;;;5054078;28;20475;-54
2021/12/19 07:39:08;;;;;;;11.27;6.33;;;;;;;;;;5051263;28;20040;-53
2021/12/19 07:41:34;;;;;;;11.47;6.90;;;;;;;;;;5054823;28;20072;-54
2021/12/19 07:44:00;;;;;;;9.07;6.83;;;;;;;;;;5054798;28;20028;-54
2021/12/19 07:46:26;;;;;;;13.10;7.23;;;;;;;;;;5054638;28;20112;-51
2021/12/19 07:48:52;;;;;;;7.63;6.17;;;;;;;;;;5054214;28;20174;-51
2021/12/19 07:51:18;;;;;;;7.60;6.80;;;;;;;;;;5054186;28;20029;-50
2021/12/19 07:53:44;;;;;;;9.63;6.17;;;;;;;;;;5054772;28;20529;-52
2021/12/19 07:56:10;;;;;;;12.87;6.90;;;;;;;;;;5054628;28;20028;-51
2021/12/19 07:58:36;;;;;;;13.80;7.53;;;;;;;;;;5054107;28;20061;-54
2021/12/19 08:01:02;;;;;;;13.93;8.00;;;;;;;;;;5054468;28;20467;-52
2021/12/19 08:03:28;;;;;;;10.93;6.57;;;;;;;;;;5053470;28;20029;-51
2021/12/19 08:05:54;;;;;;;8.10;5.77;;;;;;;;;;5054520;28;20024;-51
2021/12/19 08:08:26;;;;;;;13.33;8.13;;;;;;;;;;5056014;28;20028;-52
2021/12/19 08:13:37;;;;;;;8.83;6.17;;;;;;;;;;5050537;28;20039;-51
2021/12/19 08:16:03;;;;;;;7.17;5.40;;;;;;;;;;5053131;28;20033;-50
2021/12/19 08:18:29;;;;;;;12.70;6.97;;;;;;;;;;5046402;28;20041;-55
2021/12/19 08:20:55;;;;;;;7.07;4.97;;;;;;;;;;5050038;28;20029;-51
2021/12/19 08:23:21;;;;;;;9.73;4.23;;;;;;;;;;5044042;28;20397;-49
2021/12/19 08:25:47;;;;;;;8.57;5.30;;;;;;;;;;5051401;28;20040;-50
2021/12/19 08:28:13;;;;;;;8.40;5.57;;;;;;;;;;5050709;28;20095;-52
2021/12/19 08:30:39;;;;;;;9.27;5.50;;;;;;;;;;5051077;28;20029;-52
2021/12/19 08:33:05;;;;;;;7.03;4.57;;;;;;;;;;5051474;28;20419;-52
2021/12/19 08:35:31;;;;;;;12.97;6.93;;;;;;;;;;5040781;28;20127;-50
2021/12/19 08:37:57;;;;;;;11.60;6.50;;;;;;;;;;5050711;28;20076;-49
2021/12/19 08:40:23;;;;;;;13.73;7.77;;;;;;;;;;5051606;28;20360;-51
2021/12/19 08:42:50;;;;;;;8.57;6.20;;;;;;;;;;5048911;28;20107;-50
2021/12/19 08:45:16;;;;;;;10.27;7.27;;;;;;;;;;5051147;28;20108;-52
2021/12/19 08:47:42;;;;;;;10.37;6.47;;;;;;;;;;5051079;28;20388;-55
2021/12/19 08:50:09;;;;;;;9.90;7.13;;;;;;;;;;5050694;28;20032;-53
2021/12/19 08:52:35;;;;;;;8.90;5.47;;;;;;;;;;5042821;28;20025;-53
2021/12/19 08:55:02;;;;;;;9.93;5.87;;;;;;;;;;5051270;28;20052;-53
2021/12/19 08:57:28;;;;;;;9.37;5.50;;;;;;;;;;5050787;28;20431;-56
2021/12/19 08:59:55;;;;;;;9.53;5.33;;;;;;;;;;5048250;28;20524;-51
2021/12/19 09:02:21;;;;;;;11.93;6.50;;;;;;;;;;5050790;28;20033;-54
2021/12/19 09:04:47;;;;;;;8.83;5.77;;;;;;;;;;5050354;28;20534;-51
2021/12/19 09:07:14;;;;;;;8.97;5.07;;;;;;;;;;5050997;28;20039;-52
2021/12/19 09:09:40;;;;;;;7.13;4.13;;;;;;;;;;5049931;28;20029;-50
2021/12/19 09:12:06;;;;;;;7.13;4.90;;;;;;;;;;5050931;28;20037;-52
2021/12/19 09:14:32;;;;;;;9.47;4.30;;;;;;;;;;5051038;28;20390;-52
2021/12/19 09:16:58;;;;;;;4.17;2.07;;;;;;;;;;5048131;28;20036;-49
2021/12/19 09:19:25;;;;;;;9.33;2.77;;;;;;;;;;5050022;28;20040;-51
2021/12/19 09:21:51;;;;;;;6.33;3.83;;;;;;;;;;5050730;28;20122;-55
2021/12/19 09:24:19;;;;;;;6.37;3.63;;;;;;;;;;5050437;28;20078;-52
2021/12/19 09:26:45;;;;;;;6.80;3.67;;;;;;;;;;5050762;28;20422;-49
2021/12/19 09:29:11;;;;;;;7.27;4.93;;;;;;;;;;5049237;28;20037;-50
2021/12/19 09:31:37;;;;;;;7.37;4.20;;;;;;;;;;5053264;28;20452;-49
2021/12/19 09:34:03;;;;;;;3.50;2.27;;;;;;;;;;5049078;28;20452;-49
2021/12/19 09:36:29;;;;;;;5.07;3.63;;;;;;;;;;5049577;28;20093;-48
2021/12/19 09:38:55;;;;;;;6.30;3.40;;;;;;;;;;5049375;28;20044;-50
2021/12/19 09:41:32;;;;;;;5.30;3.13;;;;;;;;;;5050200;28;20043;-51
2021/12/19 09:44:02;;;;;;;5.80;3.53;;;;;;;;;;5050297;28;20053;-51
2021/12/19 09:46:29;;;;;;;4.87;3.33;;;;;;;;;;5049591;28;20044;-49
2021/12/19 09:48:56;;;;;;;7.87;3.97;;;;;;;;;;5047700;28;20297;-50
2021/12/19 09:51:22;;;;;;;6.17;3.20;;;;;;;;;;5049398;28;20025;-51
2021/12/19 09:53:48;;;;;;;3.83;2.87;;;;;;;;;;5048163;28;20373;-49
2021/12/19 09:56:14;;;;;;;5.83;3.33;;;;;;;;;;5045339;28;20074;-49
2021/12/19 09:58:40;;;;;;;6.27;3.60;;;;;;;;;;5040527;28;20318;-53
2021/12/19 10:01:07;;;;;;;4.93;3.33;;;;;;;;;;5049199;28;20029;-50
2021/12/19 10:03:35;;;;;;;5.00;2.77;;;;;;;;;;5050934;28;20429;-51
2021/12/19 10:06:21;;;;;;;5.93;2.97;;;;;;;;;;5051707;28;20041;-50
2021/12/19 10:09:06;;;;;;;4.60;3.13;;;;;;;;;;5046802;28;20037;-50
2021/12/19 10:14:38;;;;;;;5.87;3.37;;;;;;;;;;5045708;28;20033;-51
2021/12/19 10:17:15;;;;;;;5.93;2.90;;;;;;;;;;5047559;28;20067;-51
2021/12/19 10:19:46;;;;;;;5.00;2.70;;;;;;;;;;5047651;28;20387;-51
2021/12/19 10:22:24;;;;;;;3.53;2.92;;;;;;;;;;5045072;28;20033;-51
2021/12/19 10:24:51;;;;;;;5.03;2.17;;;;;;;;;;5044944;28;20041;-52
2021/12/19 10:27:35;;;;;;;3.53;2.47;;;;;;;;;;5045764;28;20159;-50
2021/12/19 10:30:01;;;;;;;5.27;2.47;;;;;;;;;;5046981;28;20082;-50
2021/12/19 10:32:27;;;;;;;5.13;2.63;;;;;;;;;;5051341;28;20025;-54
2021/12/19 10:35:13;;;;;;;4.20;2.90;;;;;;;;;;5050598;28;20025;-52
2021/12/19 10:37:41;;;;;;;5.10;3.23;;;;;;;;;;5050941;28;20128;-54
2021/12/19 10:40:07;;;;;;;4.47;2.73;;;;;;;;;;5051133;28;20344;-53
2021/12/19 10:42:47;;;;;;;5.57;3.17;;;;;;;;;;5051189;28;20056;-55
2021/12/19 10:45:29;;;;;;;3.47;2.58;;;;;;;;;;5036649;28;20025;-51
2021/12/19 10:48:10;;;;;;;6.30;3.07;;;;;;;;;;5050612;28;20032;-53
2021/12/19 10:50:55;;;;;;;7.13;3.50;;;;;;;;;;5051238;28;20033;-51
2021/12/19 10:53:25;;;;;;;4.30;2.83;;;;;;;;;;5051200;28;20029;-51
2021/12/19 10:55:52;;;;;;;6.40;2.58;;;;;;;;;;5051009;28;20124;-49
2021/12/19 10:58:26;;;;;;;5.53;3.40;;;;;;;;;;5050437;28;20510;-51
2021/12/19 11:00:56;;;;;;;6.30;2.90;;;;;;;;;;5049730;28;20053;-54
2021/12/19 11:03:35;;;;;;;3.92;2.05;;;;;;;;;;5037821;28;20111;-50
2021/12/19 11:06:01;;;;;;;2.87;2.07;;;;;;;;;;5050922;28;20478;-49
2021/12/19 11:08:31;;;;;;;6.30;3.17;;;;;;;;;;5049953;28;20029;-53
2021/12/19 11:10:57;;;;;;;2.90;2.20;;;;;;;;;;5051367;28;20099;-50
2021/12/19 11:13:24;;;;;;;9.53;3.33;;;;;;;;;;5051212;28;20021;-50
2021/12/19 11:15:50;;;;;;;3.70;2.43;;;;;;;;;;5051086;28;20160;-56
2021/12/19 11:18:16;;;;;;;3.63;2.30;;;;;;;;;;5050558;28;20025;-50
2021/12/19 11:20:43;;;;;;;3.97;2.33;;;;;;;;;;5049913;28;20024;-54
2021/12/19 11:23:08;;;;;;;4.87;2.63;;;;;;;;;;5040583;28;20040;-56
2021/12/19 11:25:36;;;;;;;6.03;3.13;;;;;;;;;;5045125;28;20394;-51
2021/12/19 11:28:02;;;;;;;5.33;2.40;;;;;;;;;;5047569;28;20029;-50
2021/12/19 11:30:29;;;;;;;4.27;3.27;;;;;;;;;;5048122;28;20493;-53
2021/12/19 11:33:10;;;;;;;4.20;2.43;;;;;;;;;;5048160;28;20130;-53
2021/12/19 11:35:38;;;;;;;5.70;3.87;;;;;;;;;;5047189;28;20036;-52
2021/12/19 11:38:08;;;;;;;4.53;3.20;;;;;;;;;;5047331;28;20043;-53
2021/12/19 11:40:36;;;;;;;5.97;3.03;;;;;;;;;;5046581;28;20048;-53
2021/12/19 11:43:10;;;;;;;4.90;3.20;;;;;;;;;;5049346;28;20293;-53
2021/12/19 11:45:43;;;;;;;5.47;3.53;;;;;;;;;;5051534;28;20025;-53
2021/12/19 11:48:18;;;;;;;3.77;3.03;;;;;;;;;;5046832;28;20037;-50
2021/12/19 11:50:50;;;;;;;4.80;3.80;;;;;;;;;;5051506;28;20028;-54
2021/12/19 11:53:16;;;;;;;5.43;4.43;;;;;;;;;;5051701;28;20036;-51
2021/12/19 11:55:44;;;;;;;4.10;3.00;;;;;;;;;;5051388;28;20032;-50
2021/12/19 11:58:12;;;;;;;4.90;3.60;;;;;;;;;;5050355;28;20044;-56
2021/12/19 12:00:40;;;;;;;4.93;3.60;;;;;;;;;;5051282;28;20037;-55
2021/12/19 12:03:12;;;;;;;5.50;3.47;;;;;;;;;;5050883;28;20120;-53
2021/12/19 12:05:46;;;;;;;6.60;3.23;;;;;;;;;;5051296;28;20040;-53
2021/12/19 12:08:17;;;;;;;7.20;3.80;;;;;;;;;;5050963;28;20029;-49
2021/12/19 12:10:53;;;;;;;4.75;3.45;;;;;;;;;;5050840;28;20025;-52
2021/12/19 12:13:22;;;;;;;5.90;3.80;;;;;;;;;;5051403;28;20501;-49
2021/12/19 12:15:51;;;;;;;6.20;4.30;;;;;;;;;;5049677;28;20435;-50
2021/12/19 12:18:34;;;;;;;7.10;3.20;;;;;;;;;;5041858;28;20490;-52
2021/12/19 12:21:30;;;;;;;4.07;2.73;;;;;;;;;;5050618;28;20430;-55
2021/12/19 12:23:59;;;;;;;8.23;3.53;;;;;;;;;;5050662;28;20037;-52
2021/12/19 12:26:33;;;;;;;5.23;4.73;;;;;;;;;;5051188;28;20043;-53
2021/12/19 12:28:59;;;;;;;5.43;3.63;;;;;;;;;;5050784;28;20029;-53
2021/12/19 12:31:25;;;;;;;3.87;2.70;;;;;;;;;;5046726;28;20117;-51
2021/12/19 12:33:51;;;;;;;4.50;3.27;;;;;;;;;;5050309;28;20111;-50
2021/12/19 12:36:18;;;;;;;5.83;4.30;;;;;;;;;;5050595;28;20052;-50
2021/12/19 12:38:49;;;;;;;10.03;3.60;;;;;;;;;;5050579;28;20414;-52
2021/12/19 12:41:50;;;;;;;7.00;3.58;;;;;;;;;;5053068;28;20069;-50
2021/12/19 12:44:08;;;;;;;6.23;4.30;;;;;;;;;;5052072;28;20032;-54
2021/12/19 12:46:34;;;;;;;5.03;3.80;;;;;;;;;;5052740;28;20033;-55
2021/12/19 12:49:01;;;;;;;6.13;3.30;;;;;;;;;;5051715;28;21757;-49
2021/12/19 12:51:29;;;;;;;5.50;3.40;;;;;;;;;;5052866;28;20031;-55
2021/12/19 12:54:02;;;;;;;5.17;3.30;;;;;;;;;;5053186;28;20113;-50
2021/12/19 12:56:33;;;;;;;4.70;3.43;;;;;;;;;;5052021;28;20482;-49
2021/12/19 12:58:59;;;;;;;7.22;3.97;;;;;;;;;;5052248;28;20044;-48
2021/12/19 13:01:28;;;;;;;5.33;3.87;;;;;;;;;;5052914;28;20029;-54
2021/12/19 13:03:59;;;;;;;5.40;3.40;;;;;;;;;;5052974;28;20047;-54
2021/12/19 13:06:38;;;;;;;4.70;3.97;;;;;;;;;;5053156;28;20040;-54
2021/12/19 13:09:13;;;;;;;4.97;4.10;;;;;;;;;;5052576;28;20035;-52
2021/12/19 13:11:40;;;;;;;5.53;3.47;;;;;;;;;;5052104;28;20403;-49
2021/12/19 13:14:20;;;;;;;7.40;5.20;;;;;;;;;;5050495;28;20021;-53
2021/12/19 13:16:47;;;;;;;3.53;2.83;;;;;;;;;;5047800;28;20047;-50
2021/12/19 13:19:32;;;;;;;5.07;3.30;;;;;;;;;;5047509;28;20040;-51
2021/12/19 13:21:58;;;;;;;5.63;4.40;;;;;;;;;;5048728;28;20508;-49
2021/12/19 13:24:24;;;;;;;5.07;4.20;;;;;;;;;;5050244;28;20033;-51
2021/12/19 13:27:10;;;;;;;4.83;3.37;;;;;;;;;;5047443;28;20095;-50
2021/12/19 13:29:37;;;;;;;7.27;5.07;;;;;;;;;;5047574;28;20044;-52
2021/12/19 13:32:19;;;;;;;5.83;4.30;;;;;;;;;;5047083;28;20035;-51
2021/12/19 13:34:46;;;;;;;4.27;3.13;;;;;;;;;;5046676;28;20033;-51
2021/12/19 13:37:12;;;;;;;5.30;3.37;;;;;;;;;;5048260;28;20036;-49
2021/12/19 13:39:38;;;;;;;6.27;3.73;;;;;;;;;;5047321;28;20441;-52
2021/12/19 13:42:11;;;;;;;5.87;3.67;;;;;;;;;;5046620;28;20152;-52
2021/12/19 13:44:37;;;;;;;4.97;3.27;;;;;;;;;;5048429;28;20032;-51
2021/12/19 13:47:27;;;;;;;6.40;3.77;;;;;;;;;;5048794;28;20517;-51
2021/12/19 13:49:53;;;;;;;6.50;4.10;;;;;;;;;;5047867;28;20040;-52
2021/12/19 13:52:19;;;;;;;6.73;4.13;;;;;;;;;;5049282;28;20037;-54
2021/12/19 13:54:47;;;;;;;5.80;4.22;;;;;;;;;;5048995;28;20143;-53
2021/12/19 13:57:20;;;;;;;4.97;3.60;;;;;;;;;;5048841;28;20053;-51
2021/12/19 13:59:46;;;;;;;5.10;3.37;;;;;;;;;;5045077;28;20041;-48
2021/12/19 14:02:13;;;;;;;6.93;4.23;;;;;;;;;;5048188;28;20035;-50
2021/12/19 14:04:39;;;;;;;6.93;4.20;;;;;;;;;;5048685;28;20036;-53
2021/12/19 14:07:10;;;;;;;7.70;3.58;;;;;;;;;;5049060;28;20090;-52
2021/12/19 14:09:44;;;;;;;4.43;4.00;;;;;;;;;;5047688;28;20032;-51
2021/12/19 14:12:27;;;;;;;5.10;3.87;;;;;;;;;;5048731;28;20066;-53
2021/12/19 14:14:53;;;;;;;5.20;3.77;;;;;;;;;;5048594;28;20029;-49
2021/12/19 14:17:19;;;;;;;6.17;4.33;;;;;;;;;;5046704;28;20041;-53
2021/12/19 14:19:52;;;;;;;5.60;3.50;;;;;;;;;;5048042;28;20032;-55
2021/12/19 14:22:20;;;;;;;4.57;3.07;;;;;;;;;;5048081;28;20037;-52
2021/12/19 14:24:55;;;;;;;4.50;3.37;;;;;;;;;;5049038;28;20103;-51
2021/12/19 14:27:21;;;;;;;6.73;5.10;;;;;;;;;;5042859;28;20025;-51
2021/12/19 14:29:58;;;;;;;4.67;3.83;;;;;;;;;;5048074;28;20029;-50
2021/12/19 14:32:36;;;;;;;5.13;3.50;;;;;;;;;;5037684;28;20405;-49
2021/12/19 14:35:05;;;;;;;6.73;4.83;;;;;;;;;;5048267;28;20044;-51
2021/12/19 14:37:31;;;;;;;6.83;5.13;;;;;;;;;;5049698;28;20593;-49
2021/12/19 14:40:10;;;;;;;6.83;4.30;;;;;;;;;;5049920;28;20116;-50
2021/12/19 14:42:38;;;;;;;5.07;4.33;;;;;;;;;;5048769;28;20561;-52
2021/12/19 14:45:06;;;;;;;6.50;3.97;;;;;;;;;;5049139;28;20103;-52
2021/12/19 14:47:37;;;;;;;7.83;4.77;;;;;;;;;;5055466;28;20028;-52
2021/12/19 14:50:09;;;;;;;10.50;6.00;;;;;;;;;;5040619;28;20120;-55
2021/12/19 14:52:35;;;;;;;7.40;5.40;;;;;;;;;;5042561;28;20037;-52
2021/12/19 14:55:11;;;;;;;8.30;5.30;;;;;;;;;;5051221;28;20111;-52
2021/12/19 14:57:37;;;;;;;11.00;5.57;;;;;;;;;;5050846;28;20402;-53
2021/12/19 15:00:05;;;;;;;8.60;6.93;;;;;;;;;;5050206;28;20033;-50
2021/12/19 15:02:31;;;;;;;9.50;5.60;;;;;;;;;;5051348;28;20022;-52
2021/12/19 15:04:58;;;;;;;7.32;5.65;;;;;;;;;;5051421;28;20036;-51
2021/12/19 15:07:26;;;;;;;7.50;6.00;;;;;;;;;;5050828;28;20380;-50
2021/12/19 15:09:52;;;;;;;6.83;5.47;;;;;;;;;;5050260;28;20526;-50
2021/12/19 15:12:18;;;;;;;9.63;6.20;;;;;;;;;;5051160;28;20159;-52
2021/12/19 15:14:44;;;;;;;11.17;5.80;;;;;;;;;;5055136;28;20340;-52
2021/12/19 15:17:10;;;;;;;7.43;6.03;;;;;;;;;;5055396;28;20048;-54
2021/12/19 15:19:36;;;;;;;11.20;7.27;;;;;;;;;;5054995;28;20029;-50
2021/12/19 15:22:02;;;;;;;12.03;8.80;;;;;;;;;;5055009;28;20435;-53
2021/12/19 15:24:28;;;;;;;12.53;8.73;;;;;;;;;;5055280;28;20044;-52
2021/12/19 15:26:54;;;;;;;9.77;7.83;;;;;;;;;;5055050;28;20450;-51
2021/12/19 15:29:20;;;;;;;10.57;7.43;;;;;;;;;;5054493;28;20036;-53
2021/12/19 15:31:46;;;;;;;11.02;7.55;;;;;;;;;;5054825;28;20033;-54
2021/12/19 15:34:13;;;;;;;11.30;8.70;;;;;;;;;;5055289;28;20032;-49
2021/12/19 15:36:39;;;;;;;8.57;7.00;;;;;;;;;;5054850;28;20082;-50
2021/12/19 15:39:08;;;;;;;9.25;7.35;;;;;;;;;;5054304;28;20041;-49
2021/12/19 15:41:35;;;;;;;8.10;6.57;;;;;;;;;;5054102;28;20403;-49
2021/12/19 15:44:01;;;;;;;10.73;7.43;;;;;;;;;;5049197;28;20040;-50
2021/12/19 15:46:27;;;;;;;15.33;6.83;;;;;;;;;;5054691;28;20099;-52